METAR Data
IDs: Format: Raw Decoded Include TAF

Data at: 1334 UTC 14 Dec 2019

METAR for:KPRO (Perry Muni, IA, US)
Text:KPRO 141315Z AUTO 33012KT 10SM OVC017 M06/M10 A2993 RMK AO2 T10651097
Temperature: -6.5°C ( 20°F)
Dewpoint: -9.7°C ( 15°F) [RH = 78%]
Pressure (altimeter):29.93 inches Hg (1013.6 mb)
Winds:from the NNW (330 degrees) at 14 MPH (12 knots; 6.2 m/s)
Visibility:10 or more sm (16+ km)
Ceiling:1700 feet AGL
Clouds: overcast cloud deck at 1700 feet AGL
QC Flag:automated observation with no human augmentation